sensor_id;sensor_type;location;lat;lon;timestamp;temperature;humidity
45383;DHT22;42455;51.660;5.824;2023-07-20T00:04:04;19.6;87.0
45383;DHT22;42455;51.660;5.824;2023-07-20T00:09:10;19.6;87.5
45383;DHT22;42455;51.660;5.824;2023-07-20T00:14:16;19.6;87.5
45383;DHT22;42455;51.660;5.824;2023-07-20T00:19:23;19.6;87.5
45383;DHT22;42455;51.660;5.824;2023-07-20T00:24:28;19.6;88.0
45383;DHT22;42455;51.660;5.824;2023-07-20T00:29:35;19.6;88.5
45383;DHT22;42455;51.660;5.824;2023-07-20T00:34:41;19.5;89.0
45383;DHT22;42455;51.660;5.824;2023-07-20T00:39:47;19.5;89.5
45383;DHT22;42455;51.660;5.824;2023-07-20T00:44:53;19.4;90.0
45383;DHT22;42455;51.660;5.824;2023-07-20T00:50:00;19.3;90.0
45383;DHT22;42455;51.660;5.824;2023-07-20T00:55:07;19.3;90.5
45383;DHT22;42455;51.660;5.824;2023-07-20T01:00:12;19.3;90.5
45383;DHT22;42455;51.660;5.824;2023-07-20T01:05:18;19.3;91.0
45383;DHT22;42455;51.660;5.824;2023-07-20T01:10:29;19.3;91.0
45383;DHT22;42455;51.660;5.824;2023-07-20T01:15:31;19.3;91.0
45383;DHT22;42455;51.660;5.824;2023-07-20T01:20:37;19.2;91.5
45383;DHT22;42455;51.660;5.824;2023-07-20T01:27:00;19.2;91.5
45383;DHT22;42455;51.660;5.824;2023-07-20T01:32:03;19.2;91.5
45383;DHT22;42455;51.660;5.824;2023-07-20T01:35:59;19.1;91.5
45383;DHT22;42455;51.660;5.824;2023-07-20T01:41:02;19.0;91.5
45383;DHT22;42455;51.660;5.824;2023-07-20T01:46:08;18.9;91.5
45383;DHT22;42455;51.660;5.824;2023-07-20T01:51:14;18.8;92.0
45383;DHT22;42455;51.660;5.824;2023-07-20T01:56:20;18.8;92.0
45383;DHT22;42455;51.660;5.824;2023-07-20T02:01:26;18.7;92.0
45383;DHT22;42455;51.660;5.824;2023-07-20T02:06:33;18.6;92.5
45383;DHT22;42455;51.660;5.824;2023-07-20T02:11:39;18.6;92.5
45383;DHT22;42455;51.660;5.824;2023-07-20T02:16:45;18.5;92.5
45383;DHT22;42455;51.660;5.824;2023-07-20T02:21:51;18.5;92.5
45383;DHT22;42455;51.660;5.824;2023-07-20T02:26:58;18.5;93.0
45383;DHT22;42455;51.660;5.824;2023-07-20T02:32:04;18.5;93.0
45383;DHT22;42455;51.660;5.824;2023-07-20T02:37:10;18.5;93.0
45383;DHT22;42455;51.660;5.824;2023-07-20T02:42:16;18.6;93.0
45383;DHT22;42455;51.660;5.824;2023-07-20T02:47:22;18.5;93.0
45383;DHT22;42455;51.660;5.824;2023-07-20T02:52:29;18.5;93.0
45383;DHT22;42455;51.660;5.824;2023-07-20T02:57:35;18.5;93.0
45383;DHT22;42455;51.660;5.824;2023-07-20T03:02:41;18.4;93.0
45383;DHT22;42455;51.660;5.824;2023-07-20T03:07:48;18.4;93.0
45383;DHT22;42455;51.660;5.824;2023-07-20T03:12:53;18.3;93.0
45383;DHT22;42455;51.660;5.824;2023-07-20T03:18:00;18.3;93.5
45383;DHT22;42455;51.660;5.824;2023-07-20T03:23:06;18.3;93.5
45383;DHT22;42455;51.660;5.824;2023-07-20T03:28:12;18.3;93.5
45383;DHT22;42455;51.660;5.824;2023-07-20T03:33:18;18.3;93.5
45383;DHT22;42455;51.660;5.824;2023-07-20T03:38:25;18.2;93.0
45383;DHT22;42455;51.660;5.824;2023-07-20T03:43:31;18.1;93.0
45383;DHT22;42455;51.660;5.824;2023-07-20T03:48:37;18.0;93.5
45383;DHT22;42455;51.660;5.824;2023-07-20T03:53:43;18.0;93.0
45383;DHT22;42455;51.660;5.824;2023-07-20T03:58:48;17.9;93.0
45383;DHT22;42455;51.660;5.824;2023-07-20T04:03:54;17.9;93.0
45383;DHT22;42455;51.660;5.824;2023-07-20T04:09:01;17.8;93.0
45383;DHT22;42455;51.660;5.824;2023-07-20T04:14:07;17.7;93.0
45383;DHT22;42455;51.660;5.824;2023-07-20T04:19:13;17.7;93.0
45383;DHT22;42455;51.660;5.824;2023-07-20T04:24:19;17.6;93.0
45383;DHT22;42455;51.660;5.824;2023-07-20T04:29:26;17.6;93.5
45383;DHT22;42455;51.660;5.824;2023-07-20T04:34:32;17.5;93.5
45383;DHT22;42455;51.660;5.824;2023-07-20T04:39:38;17.5;93.5
45383;DHT22;42455;51.660;5.824;2023-07-20T04:44:44;17.5;93.5
45383;DHT22;42455;51.660;5.824;2023-07-20T04:49:50;17.5;94.0
45383;DHT22;42455;51.660;5.824;2023-07-20T04:54:56;17.5;94.0
45383;DHT22;42455;51.660;5.824;2023-07-20T05:00:03;17.5;94.0
45383;DHT22;42455;51.660;5.824;2023-07-20T05:05:09;17.5;94.0
45383;DHT22;42455;51.660;5.824;2023-07-20T05:10:15;17.5;94.5
45383;DHT22;42455;51.660;5.824;2023-07-20T05:15:21;17.5;94.5
45383;DHT22;42455;51.660;5.824;2023-07-20T05:20:28;17.5;94.5
45383;DHT22;42455;51.660;5.824;2023-07-20T05:25:34;17.5;94.5
45383;DHT22;42455;51.660;5.824;2023-07-20T05:30:40;17.5;95.0
45383;DHT22;42455;51.660;5.824;2023-07-20T05:35:47;17.6;95.0
45383;DHT22;42455;51.660;5.824;2023-07-20T05:40:59;17.7;95.0
45383;DHT22;42455;51.660;5.824;2023-07-20T05:45:59;17.8;95.5
45383;DHT22;42455;51.660;5.824;2023-07-20T05:51:05;17.9;95.5
45383;DHT22;42455;51.660;5.824;2023-07-20T05:56:13;18.0;95.5
45383;DHT22;42455;51.660;5.824;2023-07-20T06:01:17;18.1;95.5
45383;DHT22;42455;51.660;5.824;2023-07-20T06:06:23;18.2;95.5
45383;DHT22;42455;51.660;5.824;2023-07-20T06:11:30;18.3;95.5
45383;DHT22;42455;51.660;5.824;2023-07-20T06:16:36;18.3;95.0
45383;DHT22;42455;51.660;5.824;2023-07-20T06:21:43;18.4;95.0
45383;DHT22;42455;51.660;5.824;2023-07-20T06:26:48;18.4;95.0
45383;DHT22;42455;51.660;5.824;2023-07-20T06:31:55;18.5;94.5
45383;DHT22;42455;51.660;5.824;2023-07-20T06:37:01;18.6;94.5
45383;DHT22;42455;51.660;5.824;2023-07-20T06:42:07;18.7;94.5
45383;DHT22;42455;51.660;5.824;2023-07-20T06:47:13;18.8;94.0
45383;DHT22;42455;51.660;5.824;2023-07-20T06:52:19;18.9;94.0
45383;DHT22;42455;51.660;5.824;2023-07-20T06:57:26;19.1;94.0
45383;DHT22;42455;51.660;5.824;2023-07-20T07:02:32;19.2;93.5
45383;DHT22;42455;51.660;5.824;2023-07-20T07:07:38;19.3;93.0
45383;DHT22;42455;51.660;5.824;2023-07-20T07:12:44;19.6;93.0
45383;DHT22;42455;51.660;5.824;2023-07-20T07:17:50;19.9;92.5
45383;DHT22;42455;51.660;5.824;2023-07-20T07:22:57;20.1;92.0
45383;DHT22;42455;51.660;5.824;2023-07-20T07:28:03;20.4;91.0
45383;DHT22;42455;51.660;5.824;2023-07-20T07:33:09;20.6;90.5
45383;DHT22;42455;51.660;5.824;2023-07-20T07:38:15;20.7;90.0
45383;DHT22;42455;51.660;5.824;2023-07-20T07:43:21;20.9;89.5
45383;DHT22;42455;51.660;5.824;2023-07-20T07:48:28;21.2;89.5
45383;DHT22;42455;51.660;5.824;2023-07-20T07:53:34;21.5;88.5
45383;DHT22;42455;51.660;5.824;2023-07-20T07:58:40;21.7;87.0
45383;DHT22;42455;51.660;5.824;2023-07-20T08:03:46;21.9;86.0
45383;DHT22;42455;51.660;5.824;2023-07-20T08:08:52;21.9;84.5
45383;DHT22;42455;51.660;5.824;2023-07-20T08:13:59;22.0;84.0
45383;DHT22;42455;51.660;5.824;2023-07-20T08:19:05;22.1;84.5
45383;DHT22;42455;51.660;5.824;2023-07-20T08:24:11;22.5;84.0
45383;DHT22;42455;51.660;5.824;2023-07-20T08:29:17;22.8;83.0
45383;DHT22;42455;51.660;5.824;2023-07-20T08:34:24;23.0;82.0
45383;DHT22;42455;51.660;5.824;2023-07-20T08:39:29;23.0;81.0
45383;DHT22;42455;51.660;5.824;2023-07-20T08:44:36;22.9;80.5
45383;DHT22;42455;51.660;5.824;2023-07-20T08:49:41;22.8;80.0
45383;DHT22;42455;51.660;5.824;2023-07-20T08:54:48;22.6;79.5
45383;DHT22;42455;51.660;5.824;2023-07-20T08:59:54;22.6;80.5
45383;DHT22;42455;51.660;5.824;2023-07-20T09:05:00;22.7;80.5
45383;DHT22;42455;51.660;5.824;2023-07-20T09:10:07;23.0;80.0
45383;DHT22;42455;51.660;5.824;2023-07-20T09:15:12;23.1;79.5
45383;DHT22;42455;51.660;5.824;2023-07-20T09:20:19;23.4;79.5
45383;DHT22;42455;51.660;5.824;2023-07-20T09:25:26;23.7;78.5
45383;DHT22;42455;51.660;5.824;2023-07-20T09:35:37;23.9;76.0
45383;DHT22;42455;51.660;5.824;2023-07-20T09:40:43;24.0;74.5
45383;DHT22;42455;51.660;5.824;2023-07-20T09:45:50;24.0;74.5
45383;DHT22;42455;51.660;5.824;2023-07-20T09:50:56;24.1;74.0
45383;DHT22;42455;51.660;5.824;2023-07-20T09:56:02;24.1;74.0
45383;DHT22;42455;51.660;5.824;2023-07-20T10:01:09;24.1;74.0
45383;DHT22;42455;51.660;5.824;2023-07-20T10:06:22;24.0;73.5
45383;DHT22;42455;51.660;5.824;2023-07-20T10:11:21;23.9;73.0
45383;DHT22;42455;51.660;5.824;2023-07-20T10:16:29;23.7;73.5
45383;DHT22;42455;51.660;5.824;2023-07-20T10:21:39;23.6;74.0
45383;DHT22;42455;51.660;5.824;2023-07-20T10:26:39;23.5;74.5
45383;DHT22;42455;51.660;5.824;2023-07-20T10:31:45;23.4;75.0
45383;DHT22;42455;51.660;5.824;2023-07-20T10:36:52;23.4;75.5
45383;DHT22;42455;51.660;5.824;2023-07-20T10:42:07;23.6;75.5
45383;DHT22;42455;51.660;5.824;2023-07-20T10:47:12;23.7;75.5
45383;DHT22;42455;51.660;5.824;2023-07-20T10:52:10;23.9;75.5
45383;DHT22;42455;51.660;5.824;2023-07-20T10:57:29;24.1;74.5
45383;DHT22;42455;51.660;5.824;2023-07-20T11:02:24;24.3;73.5
45383;DHT22;42455;51.660;5.824;2023-07-20T11:07:38;24.5;74.5
45383;DHT22;42455;51.660;5.824;2023-07-20T11:12:35;24.9;74.0
45383;DHT22;42455;51.660;5.824;2023-07-20T11:17:41;25.3;72.5
45383;DHT22;42455;51.660;5.824;2023-07-20T11:22:48;25.5;71.5
45383;DHT22;42455;51.660;5.824;2023-07-20T11:27:54;25.6;71.0
45383;DHT22;42455;51.660;5.824;2023-07-20T11:33:00;25.7;70.5
45383;DHT22;42455;51.660;5.824;2023-07-20T11:38:06;25.9;70.0
45383;DHT22;42455;51.660;5.824;2023-07-20T11:43:13;25.9;69.5
45383;DHT22;42455;51.660;5.824;2023-07-20T11:48:18;25.8;69.0
45383;DHT22;42455;51.660;5.824;2023-07-20T11:53:25;25.7;68.0
45383;DHT22;42455;51.660;5.824;2023-07-20T11:58:31;25.6;67.5
45383;DHT22;42455;51.660;5.824;2023-07-20T12:03:37;25.5;68.0
45383;DHT22;42455;51.660;5.824;2023-07-20T12:08:44;25.5;68.5
45383;DHT22;42455;51.660;5.824;2023-07-20T12:13:50;25.6;69.0
45383;DHT22;42455;51.660;5.824;2023-07-20T12:18:59;25.7;68.5
45383;DHT22;42455;51.660;5.824;2023-07-20T12:24:02;25.8;67.5
45383;DHT22;42455;51.660;5.824;2023-07-20T12:29:08;25.9;67.5
45383;DHT22;42455;51.660;5.824;2023-07-20T12:34:14;26.0;67.0
45383;DHT22;42455;51.660;5.824;2023-07-20T12:39:21;25.9;66.5
45383;DHT22;42455;51.660;5.824;2023-07-20T12:44:27;25.8;66.5
45383;DHT22;42455;51.660;5.824;2023-07-20T12:49:33;25.7;66.0
45383;DHT22;42455;51.660;5.824;2023-07-20T12:54:39;25.7;66.5
45383;DHT22;42455;51.660;5.824;2023-07-20T12:59:45;25.7;66.5
45383;DHT22;42455;51.660;5.824;2023-07-20T13:04:52;25.8;67.0
45383;DHT22;42455;51.660;5.824;2023-07-20T13:09:58;25.9;66.5
45383;DHT22;42455;51.660;5.824;2023-07-20T13:15:06;25.9;66.0
45383;DHT22;42455;51.660;5.824;2023-07-20T13:20:10;26.0;65.5
45383;DHT22;42455;51.660;5.824;2023-07-20T13:25:17;26.1;65.0
45383;DHT22;42455;51.660;5.824;2023-07-20T13:30:23;26.0;64.5
45383;DHT22;42455;51.660;5.824;2023-07-20T13:35:29;25.8;64.0
45383;DHT22;42455;51.660;5.824;2023-07-20T13:45:41;25.4;64.5
45383;DHT22;42455;51.660;5.824;2023-07-20T13:50:48;25.2;64.5
45383;DHT22;42455;51.660;5.824;2023-07-20T13:55:54;25.0;65.0
45383;DHT22;42455;51.660;5.824;2023-07-20T14:01:00;24.9;66.0
45383;DHT22;42455;51.660;5.824;2023-07-20T14:06:06;24.8;66.0
45383;DHT22;42455;51.660;5.824;2023-07-20T14:11:11;24.7;66.0
45383;DHT22;42455;51.660;5.824;2023-07-20T14:16:18;24.7;66.0
45383;DHT22;42455;51.660;5.824;2023-07-20T14:26:30;24.9;67.0
45383;DHT22;42455;51.660;5.824;2023-07-20T14:31:36;25.2;67.5
45383;DHT22;42455;51.660;5.824;2023-07-20T14:36:42;25.6;67.0
45383;DHT22;42455;51.660;5.824;2023-07-20T14:41:49;25.8;66.5
45383;DHT22;42455;51.660;5.824;2023-07-20T14:46:55;26.0;66.0
45383;DHT22;42455;51.660;5.824;2023-07-20T14:52:01;26.3;65.0
45383;DHT22;42455;51.660;5.824;2023-07-20T14:57:07;26.4;64.0
45383;DHT22;42455;51.660;5.824;2023-07-20T15:02:14;26.5;63.5
45383;DHT22;42455;51.660;5.824;2023-07-20T15:07:21;26.5;62.0
45383;DHT22;42455;51.660;5.824;2023-07-20T15:12:26;26.5;61.5
45383;DHT22;42455;51.660;5.824;2023-07-20T15:17:35;26.5;61.5
45383;DHT22;42455;51.660;5.824;2023-07-20T15:22:39;26.5;60.5
45383;DHT22;42455;51.660;5.824;2023-07-20T15:27:45;26.5;59.5
45383;DHT22;42455;51.660;5.824;2023-07-20T15:32:51;26.4;59.0
45383;DHT22;42455;51.660;5.824;2023-07-20T15:37:57;26.3;59.0
45383;DHT22;42455;51.660;5.824;2023-07-20T15:43:03;26.2;59.0
45383;DHT22;42455;51.660;5.824;2023-07-20T15:48:09;26.0;58.5
45383;DHT22;42455;51.660;5.824;2023-07-20T15:53:16;25.9;58.5
45383;DHT22;42455;51.660;5.824;2023-07-20T15:58:22;25.7;59.0
45383;DHT22;42455;51.660;5.824;2023-07-20T16:03:28;25.6;59.0
45383;DHT22;42455;51.660;5.824;2023-07-20T16:08:34;25.5;59.0
45383;DHT22;42455;51.660;5.824;2023-07-20T16:13:41;25.4;59.0
45383;DHT22;42455;51.660;5.824;2023-07-20T16:18:48;25.4;59.5
45383;DHT22;42455;51.660;5.824;2023-07-20T16:23:53;25.3;59.0
45383;DHT22;42455;51.660;5.824;2023-07-20T16:28:59;25.1;59.5
45383;DHT22;42455;51.660;5.824;2023-07-20T16:34:05;25.1;60.0
45383;DHT22;42455;51.660;5.824;2023-07-20T16:39:12;25.0;60.0
45383;DHT22;42455;51.660;5.824;2023-07-20T16:44:18;24.8;60.5
45383;DHT22;42455;51.660;5.824;2023-07-20T16:49:24;24.8;60.5
45383;DHT22;42455;51.660;5.824;2023-07-20T16:54:30;24.6;60.5
45383;DHT22;42455;51.660;5.824;2023-07-20T16:59:36;24.5;60.5
45383;DHT22;42455;51.660;5.824;2023-07-20T17:09:49;24.2;61.5
45383;DHT22;42455;51.660;5.824;2023-07-20T17:14:55;24.0;62.0
45383;DHT22;42455;51.660;5.824;2023-07-20T17:20:01;23.8;63.0
45383;DHT22;42455;51.660;5.824;2023-07-20T17:25:07;23.6;64.0
45383;DHT22;42455;51.660;5.824;2023-07-20T17:30:14;23.2;64.5
45383;DHT22;42455;51.660;5.824;2023-07-20T17:35:20;22.9;65.5
45383;DHT22;42455;51.660;5.824;2023-07-20T17:40:27;22.6;66.0
45383;DHT22;42455;51.660;5.824;2023-07-20T17:45:32;22.4;67.0
45383;DHT22;42455;51.660;5.824;2023-07-20T17:50:38;22.2;68.0
45383;DHT22;42455;51.660;5.824;2023-07-20T17:55:45;22.1;68.5
45383;DHT22;42455;51.660;5.824;2023-07-20T18:00:51;21.9;69.0
45383;DHT22;42455;51.660;5.824;2023-07-20T18:06:02;21.6;70.5
45383;DHT22;42455;51.660;5.824;2023-07-20T18:11:03;21.3;72.5
45383;DHT22;42455;51.660;5.824;2023-07-20T18:16:10;21.0;73.5
45383;DHT22;42455;51.660;5.824;2023-07-20T18:21:16;20.8;74.0
45383;DHT22;42455;51.660;5.824;2023-07-20T18:26:22;20.6;75.0
45383;DHT22;42455;51.660;5.824;2023-07-20T18:31:28;20.4;75.5
45383;DHT22;42455;51.660;5.824;2023-07-20T18:36:34;20.3;76.5
45383;DHT22;42455;51.660;5.824;2023-07-20T18:41:41;20.1;77.0
45383;DHT22;42455;51.660;5.824;2023-07-20T18:46:47;20.0;77.5
45383;DHT22;42455;51.660;5.824;2023-07-20T18:51:53;20.0;78.0
45383;DHT22;42455;51.660;5.824;2023-07-20T18:56:59;19.9;78.5
45383;DHT22;42455;51.660;5.824;2023-07-20T19:02:05;19.9;79.0
45383;DHT22;42455;51.660;5.824;2023-07-20T19:07:12;19.9;79.5
45383;DHT22;42455;51.660;5.824;2023-07-20T19:12:18;19.9;80.0
45383;DHT22;42455;51.660;5.824;2023-07-20T19:17:24;19.9;80.5
45383;DHT22;42455;51.660;5.824;2023-07-20T19:22:30;19.9;81.0
45383;DHT22;42455;51.660;5.824;2023-07-20T19:27:36;19.8;81.0
45383;DHT22;42455;51.660;5.824;2023-07-20T19:32:43;19.8;81.5
45383;DHT22;42455;51.660;5.824;2023-07-20T19:37:49;19.8;82.0
45383;DHT22;42455;51.660;5.824;2023-07-20T19:42:54;19.8;82.0
45383;DHT22;42455;51.660;5.824;2023-07-20T19:53:07;19.7;83.0
45383;DHT22;42455;51.660;5.824;2023-07-20T19:58:13;19.6;83.0
45383;DHT22;42455;51.660;5.824;2023-07-20T20:03:19;19.6;83.0
45383;DHT22;42455;51.660;5.824;2023-07-20T20:08:25;19.5;83.0
45383;DHT22;42455;51.660;5.824;2023-07-20T20:13:31;19.4;83.5
45383;DHT22;42455;51.660;5.824;2023-07-20T20:18:38;19.4;84.0
45383;DHT22;42455;51.660;5.824;2023-07-20T20:23:44;19.4;84.5
45383;DHT22;42455;51.660;5.824;2023-07-20T20:28:50;19.3;84.5
45383;DHT22;42455;51.660;5.824;2023-07-20T20:33:56;19.3;84.5
45383;DHT22;42455;51.660;5.824;2023-07-20T20:39:03;19.3;84.5
45383;DHT22;42455;51.660;5.824;2023-07-20T20:44:09;19.3;84.5
45383;DHT22;42455;51.660;5.824;2023-07-20T20:49:15;19.2;84.5
45383;DHT22;42455;51.660;5.824;2023-07-20T20:54:21;19.2;85.0
45383;DHT22;42455;51.660;5.824;2023-07-20T20:59:27;19.1;85.0
45383;DHT22;42455;51.660;5.824;2023-07-20T21:04:34;19.0;85.0
45383;DHT22;42455;51.660;5.824;2023-07-20T21:09:40;18.9;85.0
45383;DHT22;42455;51.660;5.824;2023-07-20T21:14:46;18.9;85.5
45383;DHT22;42455;51.660;5.824;2023-07-20T21:19:52;18.7;85.5
45383;DHT22;42455;51.660;5.824;2023-07-20T21:24:59;18.6;85.5
45383;DHT22;42455;51.660;5.824;2023-07-20T21:30:05;18.6;86.0
45383;DHT22;42455;51.660;5.824;2023-07-20T21:35:11;18.5;86.0
45383;DHT22;42455;51.660;5.824;2023-07-20T21:40:17;18.4;86.0
45383;DHT22;42455;51.660;5.824;2023-07-20T21:45:23;18.3;86.5
45383;DHT22;42455;51.660;5.824;2023-07-20T21:50:29;18.2;87.0
45383;DHT22;42455;51.660;5.824;2023-07-20T21:55:35;18.2;87.0
45383;DHT22;42455;51.660;5.824;2023-07-20T22:00:42;18.1;87.0
45383;DHT22;42455;51.660;5.824;2023-07-20T22:05:49;18.0;87.0
45383;DHT22;42455;51.660;5.824;2023-07-20T22:10:54;17.9;87.5
45383;DHT22;42455;51.660;5.824;2023-07-20T22:16:00;17.9;87.5
45383;DHT22;42455;51.660;5.824;2023-07-20T22:26:13;17.7;87.5
45383;DHT22;42455;51.660;5.824;2023-07-20T22:31:19;17.6;87.5
45383;DHT22;42455;51.660;5.824;2023-07-20T22:36:25;17.5;88.0
45383;DHT22;42455;51.660;5.824;2023-07-20T22:41:31;17.4;88.5
45383;DHT22;42455;51.660;5.824;2023-07-20T22:46:38;17.4;88.5
45383;DHT22;42455;51.660;5.824;2023-07-20T22:51:44;17.3;88.5
45383;DHT22;42455;51.660;5.824;2023-07-20T22:56:50;17.3;89.0
45383;DHT22;42455;51.660;5.824;2023-07-20T23:01:56;17.2;89.0
45383;DHT22;42455;51.660;5.824;2023-07-20T23:07:03;17.1;89.5
45383;DHT22;42455;51.660;5.824;2023-07-20T23:12:09;17.1;89.5
45383;DHT22;42455;51.660;5.824;2023-07-20T23:17:15;17.0;89.5
45383;DHT22;42455;51.660;5.824;2023-07-20T23:22:21;17.0;89.5
45383;DHT22;42455;51.660;5.824;2023-07-20T23:27:27;16.9;89.5
45383;DHT22;42455;51.660;5.824;2023-07-20T23:32:34;16.9;89.5
45383;DHT22;42455;51.660;5.824;2023-07-20T23:37:40;16.8;89.5
45383;DHT22;42455;51.660;5.824;2023-07-20T23:42:46;16.8;89.5
45383;DHT22;42455;51.660;5.824;2023-07-20T23:47:52;16.7;89.5
45383;DHT22;42455;51.660;5.824;2023-07-20T23:52:58;16.6;90.0
45383;DHT22;42455;51.660;5.824;2023-07-20T23:58:05;16.6;90.0
